Time;durP1;ratioP1;P1;durP2;ratioP2;P2;SDS_P1;SDS_P2;PMS_P1;PMS_P2;Temp;Humidity;BMP_temperature;BMP_pressure;BME280_temperature;BME280_humidity;BME280_pressure;Samples;Min_cycle;Max_cycle;Signal;HPM_P1;HPM_P2
2022/08/27 05:38:32;;;;;;;256.88;131.15;;;;;;;21.76;55.31;100301.47;5224308;23;20315;-93
2022/08/27 05:50:52;;;;;;;271.13;141.43;;;;;;;21.65;55.13;100209.38;4912339;29;20048;-90
2022/08/27 05:56:54;;;;;;;284.30;138.87;;;;;;;22.21;55.13;100272.97;4943361;23;20425;-94
2022/08/27 06:02:12;;;;;;;302.13;142.88;;;;;;;22.00;53.80;100214.88;4931801;23;20063;-90
2022/08/27 06:04:38;;;;;;;276.02;139.02;;;;;;;22.42;54.21;100275.38;4923758;23;20063;-94
2022/08/27 06:07:13;;;;;;;287.70;139.65;;;;;;;22.66;54.36;100304.88;4921292;23;20586;-94
2022/08/27 06:09:40;;;;;;;303.10;135.23;;;;;;;22.56;53.86;100274.81;4920471;23;20056;-94
2022/08/27 06:12:14;;;;;;;283.67;136.07;;;;;;;22.77;53.90;100302.25;4896740;23;20059;-89
2022/08/27 06:14:41;;;;;;;263.50;132.57;;;;;;;22.61;54.09;100260.56;4896038;23;20572;-94
2022/08/27 06:17:08;;;;;;;259.77;131.43;;;;;;;22.32;54.65;100203.56;4936001;23;20513;-92
2022/08/27 06:19:35;;;;;;;247.10;124.20;;;;;;;22.87;54.27;100267.38;4909799;29;20036;-89
2022/08/27 06:23:07;;;;;;;251.93;127.68;;;;;;;23.18;54.75;100300.59;4959178;23;20055;-92
2022/08/27 06:25:33;;;;;;;248.65;123.03;;;;;;;22.97;54.80;100239.69;4923302;29;20133;-88
2022/08/27 06:28:12;;;;;;;240.02;114.57;;;;;;;23.25;52.61;100266.44;4919963;23;20036;-91
2022/08/27 06:33:30;;;;;;;219.98;108.28;;;;;;;23.73;52.35;100291.06;4967557;23;20056;-94
2022/08/27 06:44:46;;;;;;;215.13;107.65;;;;;;;24.12;51.58;100292.34;1111248;23;20330;-89
2022/08/27 06:47:13;;;;;;;189.75;92.03;;;;;;;23.68;48.59;100214.81;4903362;29;20056;-92
2022/08/27 06:50:29;;;;;;;181.73;93.75;;;;;;;24.26;48.34;100285.31;4902614;29;20052;-90
2022/08/27 06:52:57;;;;;;;196.57;85.53;;;;;;;24.34;47.30;100299.00;4907028;29;20146;-92
2022/08/27 06:55:23;;;;;;;198.98;86.28;;;;;;;24.07;47.32;100236.84;4903325;29;20063;-92
2022/08/27 06:57:49;;;;;;;196.20;90.78;;;;;;;24.17;47.61;100243.69;4908546;29;20273;-90
2022/08/27 07:00:16;;;;;;;179.70;83.20;;;;;;;24.31;47.77;100241.06;4912769;29;20044;-93
2022/08/27 07:02:45;;;;;;;158.10;78.90;;;;;;;24.50;47.18;100259.66;4895074;23;20182;-96
2022/08/27 07:05:30;;;;;;;164.15;79.75;;;;;;;24.25;46.89;100208.28;4884319;29;20044;-90
2022/08/27 07:07:58;;;;;;;154.50;80.20;;;;;;;24.42;46.62;100209.66;4913347;29;20055;-93
2022/08/27 07:10:24;;;;;;;166.38;81.28;;;;;;;24.63;46.64;100226.63;4905070;23;20395;-94
2022/08/27 07:13:55;;;;;;;201.25;86.22;;;;;;;25.06;46.55;100282.91;5482796;23;20026;-96
2022/08/27 07:16:50;;;;;;;195.77;77.57;;;;;;;25.18;45.58;100284.63;4897373;23;20068;-95
2022/08/27 07:19:28;;;;;;;175.45;75.32;;;;;;;25.05;45.86;100247.72;4868046;29;20104;-91
2022/08/27 07:22:44;;;;;;;176.38;73.57;;;;;;;25.35;44.58;100283.16;4900721;29;20103;-92
2022/08/27 07:25:58;;;;;;;145.13;72.43;;;;;;;25.46;46.03;100272.81;4890517;23;20074;-91
2022/08/27 07:29:06;;;;;;;142.27;66.95;;;;;;;25.57;45.25;100267.28;4914346;23;20114;-92
2022/08/27 07:39:53;;;;;;;134.23;64.05;;;;;;;25.87;44.61;100272.66;4932135;23;20059;-88
2022/08/27 07:46:32;;;;;;;130.93;63.60;;;;;;;25.78;42.47;100242.19;4922796;23;20439;-91
2022/08/27 07:52:25;;;;;;;130.43;63.57;;;;;;;26.08;42.97;100243.91;4873734;29;20423;-91
2022/08/27 07:55:17;;;;;;;146.35;66.03;;;;;;;26.40;43.76;100270.03;4856929;29;20101;-93
2022/08/27 07:57:51;;;;;;;152.10;66.55;;;;;;;26.06;42.94;100201.47;4838864;29;20060;-93
2022/08/27 08:01:22;;;;;;;162.03;69.03;;;;;;;26.65;43.29;100269.28;4867460;29;20434;-94
2022/08/27 08:04:54;;;;;;;129.55;59.35;;;;;;;26.80;40.35;100264.50;4866512;29;20071;-90
2022/08/27 08:07:45;;;;;;;122.25;59.90;;;;;;;26.94;42.09;100268.09;4926176;23;20063;-91
2022/08/27 08:11:17;;;;;;;118.47;62.13;;;;;;;27.06;42.37;100260.50;4918971;29;20071;-94
2022/08/27 08:22:37;;;;;;;118.00;57.88;;;;;;;27.35;37.53;100228.38;4919492;29;20036;-90
2022/08/27 08:25:04;;;;;;;133.73;64.32;;;;;;;27.29;39.12;100198.31;4901591;29;20044;-89
2022/08/27 08:27:36;;;;;;;140.63;50.35;;;;;;;27.72;34.51;100249.53;4917669;29;20052;-89
2022/08/27 08:30:07;;;;;;;174.70;52.28;;;;;;;27.49;35.80;100198.66;4903491;29;20055;-87
2022/08/27 08:32:33;;;;;;;75.30;39.35;;;;;;;27.43;31.98;100172.19;4913018;23;20414;-89
2022/08/27 08:35:01;;;;;;;;;;;;;;;27.99;32.00;100247.03;4924130;29;20042;-93
2022/08/27 08:37:29;;;;;;;82.55;41.20;;;;;;;27.75;33.18;100188.88;4938288;29;20005;-88
2022/08/27 08:40:34;;;;;;;83.38;39.92;;;;;;;28.16;32.64;100236.09;4937859;29;20172;-89
2022/08/27 08:43:06;;;;;;;80.93;38.08;;;;;;;28.02;31.45;100195.63;4902110;29;20076;-86
2022/08/27 08:45:37;;;;;;;58.90;29.75;;;;;;;28.33;30.65;100235.19;4927346;29;20040;-87
2022/08/27 08:48:29;;;;;;;55.30;29.70;;;;;;;28.37;29.71;100235.94;4922966;29;20044;-86
2022/08/27 08:51:59;;;;;;;84.45;35.45;;;;;;;28.46;29.21;100233.50;4916137;29;20048;-87
2022/08/27 08:54:31;;;;;;;81.35;39.28;;;;;;;28.33;31.37;100204.25;4897287;29;20036;-86
2022/08/27 08:57:25;;;;;;;76.80;41.13;;;;;;;28.54;31.43;100221.00;4919407;23;20056;-88
2022/08/27 09:00:22;;;;;;;87.78;43.13;;;;;;;28.61;30.69;100233.41;4897842;29;20040;-91
2022/08/27 09:05:35;;;;;;;94.45;39.67;;;;;;;28.67;30.74;100224.09;4921530;29;20045;-85
2022/08/27 09:08:21;;;;;;;90.28;42.63;;;;;;;28.53;32.16;100196.09;4927481;29;20040;-96
2022/08/27 09:11:02;;;;;;;91.88;45.35;;;;;;;28.77;31.92;100216.78;4928212;29;20059;-85
2022/08/27 09:14:09;;;;;;;91.80;42.58;;;;;;;28.83;33.06;100215.13;4899764;29;20094;-85
2022/08/27 09:16:44;;;;;;;95.25;41.00;;;;;;;28.66;30.19;100182.31;4874037;29;20055;-85
2022/08/27 09:19:13;;;;;;;97.07;41.85;;;;;;;28.65;30.10;100172.28;4922580;29;20047;-85
2022/08/27 09:21:40;;;;;;;78.13;42.03;;;;;;;29.01;30.29;100210.16;4932008;29;20100;-88
2022/08/27 09:24:44;;;;;;;77.90;38.80;;;;;;;28.96;30.35;100196.50;4931794;29;20044;-85
2022/08/27 09:30:49;;;;;;;80.75;38.33;;;;;;;29.20;29.56;100200.31;4944394;29;20048;-85
2022/08/27 09:33:22;;;;;;;95.05;37.95;;;;;;;29.29;29.36;100202.63;4955711;29;20047;-91
2022/08/27 09:35:50;;;;;;;180.70;40.20;;;;;;;29.11;29.74;100165.44;4956901;29;20031;-86
2022/08/27 09:38:27;;;;;;;87.47;40.97;;;;;;;29.08;29.40;100146.56;4921507;29;20043;-84
2022/08/27 09:41:19;;;;;;;117.97;42.05;;;;;;;29.08;29.24;100133.28;4952315;29;20047;-89
2022/08/27 09:44:37;;;;;;;80.30;39.38;;;;;;;29.65;29.51;100191.78;4911588;29;20039;-93
2022/08/27 09:47:28;;;;;;;103.95;40.03;;;;;;;29.75;31.51;100192.84;4933768;23;20055;-91
2022/08/27 09:50:06;;;;;;;67.65;33.20;;;;;;;29.85;28.36;100197.53;4941056;29;20042;-91
2022/08/27 09:59:03;;;;;;;46.92;24.02;;;;;;;29.99;28.73;100210.63;4931101;29;20043;-92
2022/08/27 10:02:01;;;;;;;;;;;;;;;30.01;27.13;100202.56;4911471;29;20047;-94
2022/08/27 10:15:58;;;;;;;237.43;32.03;;;;;;;29.82;29.69;100166.59;4934987;29;20050;-92
2022/08/27 10:18:40;;;;;;;53.80;26.85;;;;;;;30.03;28.89;100191.66;4861829;29;20052;-91
2022/08/27 10:21:33;;;;;;;53.03;26.30;;;;;;;30.03;30.27;100199.31;4902056;29;20118;-93
2022/08/27 10:24:19;;;;;;;58.67;27.45;;;;;;;30.07;29.71;100192.41;4885140;29;20044;-92
2022/08/27 10:30:52;;;;;;;68.35;30.95;;;;;;;29.75;29.35;100119.56;4931393;23;20142;-92
2022/08/27 10:33:58;;;;;;;59.78;29.92;;;;;;;30.34;29.45;100189.63;4911968;29;20168;-94
2022/08/27 10:44:25;;;;;;;82.30;32.72;;;;;;;30.08;28.05;100134.78;4912923;29;20048;-96
2022/08/27 10:47:39;;;;;;;67.05;35.83;;;;;;;30.34;28.50;100183.19;4925225;28;20020;-95
2022/08/27 11:16:19;;;;;;;51.88;19.98;;;;;;;30.48;26.77;100151.09;4881174;29;20080;-92
2022/08/27 11:19:05;;;;;;;51.80;22.15;;;;;;;30.56;26.45;100173.16;4866514;29;20049;-93
2022/08/27 11:21:50;;;;;;;54.83;22.83;;;;;;;30.53;26.73;100162.72;4863959;29;20061;-94
2022/08/27 11:24:41;;;;;;;47.40;24.30;;;;;;;30.57;25.87;100171.91;4850108;29;20165;-92
2022/08/27 11:27:09;;;;;;;60.67;25.33;;;;;;;30.33;27.48;100133.59;4880823;29;20059;-92
2022/08/27 11:29:51;;;;;;;43.20;23.85;;;;;;;30.62;27.07;100170.59;4864392;29;20072;-93
2022/08/27 11:32:45;;;;;;;61.80;27.35;;;;;;;30.64;26.72;100174.59;4848562;29;20552;-86
2022/08/27 11:35:50;;;;;;;72.45;26.52;;;;;;;30.69;26.25;100169.69;4881105;29;20056;-92
2022/08/27 11:38:26;;;;;;;68.75;26.75;;;;;;;30.75;27.74;100173.63;4863234;29;20133;-93
2022/08/27 11:41:14;;;;;;;;;;;;;;;30.88;25.25;100166.16;4862262;29;20050;-88
2022/08/27 11:43:43;;;;;;;49.00;24.38;;;;;;;31.08;26.74;100172.63;4865988;29;19923;-93
2022/08/27 11:46:46;;;;;;;82.93;25.13;;;;;;;31.11;26.89;100140.69;4855101;29;20051;-87
2022/08/27 11:49:36;;;;;;;53.90;21.90;;;;;;;31.36;26.13;100153.56;4865534;29;20044;-89
2022/08/27 11:52:06;;;;;;;53.95;22.90;;;;;;;31.51;25.90;100156.88;4878546;29;20055;-89
2022/08/27 11:54:49;;;;;;;45.95;22.42;;;;;;;31.59;26.01;100161.94;4898549;29;20048;-92
2022/08/27 11:57:30;;;;;;;113.22;29.50;;;;;;;31.66;25.70;100160.19;4923049;29;20127;-94
2022/08/27 11:59:57;;;;;;;40.17;21.38;;;;;;;31.72;24.31;100164.06;4875940;29;20044;-88
2022/08/27 12:02:37;;;;;;;74.53;24.38;;;;;;;31.41;25.41;100099.34;4884839;29;20542;-90
2022/08/27 12:05:23;;;;;;;58.53;23.23;;;;;;;31.68;25.17;100135.88;4906279;29;20044;-86
2022/08/27 12:08:17;;;;;;;46.13;22.20;;;;;;;31.76;24.14;100145.03;4922094;29;20193;-93
2022/08/27 12:11:17;;;;;;;47.47;23.85;;;;;;;31.70;24.27;100143.94;4933587;29;20058;-90
2022/08/27 12:14:03;;;;;;;76.55;23.95;;;;;;;31.67;24.72;100145.63;4938841;29;20118;-88
2022/08/27 12:16:59;;;;;;;60.28;26.42;;;;;;;31.55;23.95;100123.66;4936451;29;20043;-92
2022/08/27 12:23:42;;;;;;;293.40;37.67;;;;;;;31.51;23.79;100134.25;4915803;29;20422;-90
2022/08/27 12:26:24;;;;;;;79.68;26.75;;;;;;;31.51;23.75;100137.09;4867316;29;20044;-90
2022/08/27 12:29:28;;;;;;;54.72;27.25;;;;;;;31.39;24.36;100130.09;4851994;29;20715;-94
2022/08/27 12:32:10;;;;;;;52.72;26.15;;;;;;;31.18;24.67;100105.06;4851218;29;20055;-90
2022/08/27 12:34:50;;;;;;;58.70;26.85;;;;;;;31.19;25.32;100110.25;4867735;29;20029;-92
2022/08/27 12:37:25;;;;;;;55.92;26.38;;;;;;;31.30;27.60;100130.63;4897034;29;20490;-87
2022/08/27 12:39:59;;;;;;;44.93;26.50;;;;;;;31.20;25.93;100119.56;4898759;29;20044;-91
2022/08/27 12:42:25;;;;;;;61.00;25.92;;;;;;;30.97;24.07;100092.97;4865818;29;20048;-86
2022/08/27 12:44:56;;;;;;;76.97;25.25;;;;;;;31.13;24.87;100126.94;4889919;29;20076;-91
2022/08/27 12:47:48;;;;;;;40.58;22.58;;;;;;;30.78;24.77;100076.81;4882761;29;20044;-90
2022/08/27 12:50:40;;;;;;;64.38;25.90;;;;;;;31.07;24.53;100119.41;4866565;29;20048;-91
2022/08/27 12:53:26;;;;;;;109.70;26.83;;;;;;;30.93;25.49;100092.25;4817345;29;20062;-85
2022/08/27 12:56:43;;;;;;;60.25;26.38;;;;;;;31.01;25.57;100119.09;4796427;29;20050;-90
2022/08/27 12:59:38;;;;;;;52.80;26.38;;;;;;;30.98;24.83;100114.31;4811860;29;20050;-90
2022/08/27 13:02:32;;;;;;;84.93;27.02;;;;;;;30.88;24.92;100096.34;4842545;29;20452;-91
2022/08/27 13:05:05;;;;;;;53.55;27.42;;;;;;;31.03;25.98;100107.38;4824448;29;20620;-86
2022/08/27 13:07:40;;;;;;;68.63;27.50;;;;;;;30.93;25.41;100089.41;4826237;29;20049;-86
2022/08/27 13:10:23;;;;;;;55.95;25.70;;;;;;;31.08;24.59;100109.69;4842106;29;20605;-90
2022/08/27 13:13:14;;;;;;;59.03;32.25;;;;;;;31.08;25.01;100096.38;4814657;29;20057;-86
2022/08/27 13:15:48;;;;;;;89.93;29.92;;;;;;;31.15;24.63;100086.94;4823701;29;20065;-87
2022/08/27 13:18:17;;;;;;;62.72;28.52;;;;;;;31.12;24.62;100082.97;4792268;29;20057;-89
2022/08/27 13:20:44;;;;;;;65.10;28.17;;;;;;;31.23;25.20;100101.72;4808330;29;20548;-90
2022/08/27 13:23:21;;;;;;;57.05;28.40;;;;;;;31.10;25.16;100088.25;4825172;29;20058;-86
2022/08/27 13:26:10;;;;;;;98.72;31.85;;;;;;;31.06;25.59;100090.38;4824318;29;20135;-86
2022/08/27 13:28:39;;;;;;;65.13;27.55;;;;;;;31.14;24.49;100107.97;4841572;29;20046;-90
2022/08/27 13:31:11;;;;;;;109.80;29.52;;;;;;;31.04;25.03;100101.28;4908082;29;20058;-90
2022/08/27 13:36:34;;;;;;;50.58;26.15;;;;;;;30.77;25.86;100092.16;4924704;29;20076;-89
2022/08/27 13:39:11;;;;;;;68.28;27.80;;;;;;;30.72;27.37;100095.44;4921242;29;20529;-86
2022/08/27 13:42:14;;;;;;;79.38;28.50;;;;;;;30.70;25.03;100093.06;4937613;29;20043;-90
2022/08/27 13:44:42;;;;;;;64.30;27.50;;;;;;;30.72;25.69;100092.63;4906857;29;20039;-85
2022/08/27 13:47:21;;;;;;;92.88;29.83;;;;;;;30.65;26.00;100088.69;4900896;29;20047;-86
2022/08/27 13:49:52;;;;;;;113.20;30.85;;;;;;;30.49;24.90;100076.50;4898210;29;20051;-87
2022/08/27 13:54:11;;;;;;;103.07;31.25;;;;;;;30.46;25.62;100083.81;4927123;29;20070;-86
2022/08/27 13:56:41;;;;;;;103.00;30.48;;;;;;;30.28;26.20;100091.78;4953773;29;20047;-91
2022/08/27 14:03:56;;;;;;;92.75;30.83;;;;;;;29.61;26.90;100032.44;4915984;29;20049;-90
2022/08/27 14:09:45;;;;;;;110.38;38.28;;;;;;;29.68;27.85;100081.03;5017584;23;20046;-92
2022/08/27 14:13:12;;;;;;;119.45;31.75;;;;;;;29.58;26.89;100079.13;4900459;29;20063;-92
2022/08/27 14:22:36;;;;;;;112.70;29.75;;;;;;;28.78;28.36;99990.47;4953761;23;20041;-91
2022/08/27 14:25:10;;;;;;;79.43;26.23;;;;;;;29.29;29.00;100077.91;4929357;23;20076;-88
2022/08/27 14:27:41;;;;;;;57.97;25.02;;;;;;;29.06;28.45;100048.44;4888073;29;20048;-89
2022/08/27 14:30:13;;;;;;;58.78;23.92;;;;;;;29.03;28.46;100032.38;4935080;29;20044;-89
2022/08/27 14:33:36;;;;;;;45.33;21.23;;;;;;;29.44;27.45;100079.34;4921224;29;20042;-90
2022/08/27 14:56:02;;;;;;;74.38;26.30;;;;;;;29.26;29.17;100079.56;4945591;23;20060;-93
2022/08/27 14:58:54;;;;;;;83.50;26.80;;;;;;;29.14;31.42;100077.28;4929275;23;20048;-89
2022/08/27 15:09:35;;;;;;;98.03;28.95;;;;;;;28.71;30.23;100069.31;4932408;23;20067;-93
2022/08/27 15:19:51;;;;;;;78.10;25.40;;;;;;;27.86;30.71;99981.75;5568964;23;20152;-90
2022/08/27 15:22:43;;;;;;;;;;;;;;;28.37;31.07;100072.03;4911906;29;20069;-95
2022/08/27 15:28:47;;;;;;;108.55;27.60;;;;;;;28.20;32.11;100074.59;4960175;23;20083;-93
2022/08/27 15:36:17;;;;;;;110.35;25.58;;;;;;;28.01;32.73;100075.16;5056439;23;20788;-91
2022/08/27 15:42:40;;;;;;;87.78;24.85;;;;;;;27.83;31.55;100070.47;4932777;28;20075;-92
2022/08/27 15:45:27;;;;;;;103.68;26.10;;;;;;;27.81;33.04;100061.63;4955215;23;20106;-89
2022/08/27 15:55:40;;;;;;;82.70;26.85;;;;;;;27.62;30.75;100062.16;4954417;23;20550;-94
2022/08/27 16:02:31;;;;;;;91.97;31.25;;;;;;;27.48;32.02;100065.84;4907327;29;20047;-93
2022/08/27 16:05:41;;;;;;;85.28;34.45;;;;;;;27.42;31.15;100056.28;4895501;28;20028;-96
2022/08/27 16:13:54;;;;;;;135.50;38.45;;;;;;;27.04;32.02;100032.75;4928038;28;20150;-91
2022/08/27 16:16:22;;;;;;;;;;;;;;;27.13;31.57;100052.78;4926131;29;20064;-91
2022/08/27 16:18:51;;;;;;;137.45;41.95;;;;;;;26.69;32.12;100007.25;4909626;29;19923;-90
2022/08/27 16:21:21;;;;;;;130.45;41.72;;;;;;;26.74;31.96;100028.47;4903170;29;20051;-90
2022/08/27 16:24:12;;;;;;;103.18;44.55;;;;;;;26.90;32.56;100056.84;4920652;29;20044;-90
2022/08/27 16:26:58;;;;;;;113.95;45.42;;;;;;;26.65;32.19;100031.69;4878547;29;20056;-88
2022/08/27 16:32:45;;;;;;;95.53;42.33;;;;;;;26.39;32.41;100010.50;4918952;29;20051;-91
2022/08/27 16:35:19;;;;;;;125.15;42.22;;;;;;;26.38;32.76;100017.28;4878111;29;20036;-91
2022/08/27 16:37:49;;;;;;;149.50;42.20;;;;;;;26.52;32.66;100043.72;4893583;29;20024;-89
2022/08/27 16:40:16;;;;;;;143.02;44.38;;;;;;;26.61;32.60;100064.56;4890320;29;20044;-86
2022/08/27 16:43:00;;;;;;;119.07;44.38;;;;;;;26.36;33.10;100033.75;4922604;28;20045;-89
2022/08/27 16:45:28;;;;;;;125.32;44.25;;;;;;;25.87;33.35;99970.94;4917163;23;20826;-89
2022/08/27 16:51:38;;;;;;;226.73;51.70;;;;;;;25.93;33.49;99988.16;4897119;29;20099;-91
2022/08/27 16:55:19;;;;;;;171.63;51.22;;;;;;;26.18;33.78;100044.16;4908734;29;20145;-95
2022/08/27 16:58:21;;;;;;;159.45;51.22;;;;;;;26.13;33.91;100033.38;4907314;29;20045;-90
2022/08/27 17:01:08;;;;;;;160.98;54.50;;;;;;;26.30;33.60;100068.97;4892668;23;20123;-91
2022/08/27 17:04:25;;;;;;;145.60;53.78;;;;;;;26.26;33.65;100071.00;4908092;29;20060;-94
2022/08/27 17:07:15;;;;;;;118.85;52.55;;;;;;;25.63;34.36;99980.09;4909349;29;20047;-92
2022/08/27 17:09:43;;;;;;;132.10;56.17;;;;;;;25.61;33.98;99982.50;4918713;23;20572;-89
2022/08/27 17:12:20;;;;;;;126.95;62.90;;;;;;;25.72;33.90;100002.91;4924561;29;20047;-93
2022/08/27 17:15:13;;;;;;;138.52;63.55;;;;;;;25.53;33.98;99984.50;4942797;23;20522;-93
2022/08/27 17:17:41;;;;;;;146.10;69.53;;;;;;;25.48;34.40;99991.28;4918380;29;20036;-92
2022/08/27 17:20:24;;;;;;;146.60;68.72;;;;;;;25.50;34.25;99999.28;4910613;23;20067;-92
2022/08/27 17:25:43;;;;;;;149.70;75.60;;;;;;;25.43;34.42;99991.69;4915433;29;20040;-91
2022/08/27 17:32:14;;;;;;;161.33;74.97;;;;;;;25.88;34.56;100070.56;4917381;29;20056;-93
2022/08/27 18:09:48;;;;;;;188.20;89.25;;;;;;;24.78;36.22;100029.00;4919291;29;20056;-92
2022/08/27 18:12:20;;;;;;;172.27;85.53;;;;;;;25.11;36.66;100100.69;4917616;29;20123;-92
2022/08/27 18:15:27;;;;;;;185.70;90.00;;;;;;;24.85;36.86;100060.59;4880719;29;20104;-90
2022/08/27 18:18:44;;;;;;;180.02;89.38;;;;;;;25.04;36.60;100087.47;4939400;23;20055;-91
2022/08/27 18:21:12;;;;;;;188.60;92.30;;;;;;;24.67;37.80;100033.72;4936125;29;20044;-93
2022/08/27 18:25:24;;;;;;;;;;;;;;;;;;;;;
2022/08/27 18:29:00;;;;;;;185.95;92.03;;;;;;;24.29;38.35;100002.31;5048843;28;20079;-92
2022/08/27 18:32:16;;;;;;;196.98;92.70;;;;;;;24.22;37.84;99999.50;5011757;28;20865;-91
2022/08/27 18:34:52;;;;;;;198.90;94.20;;;;;;;24.77;37.60;100095.31;5021951;28;20033;-92
2022/08/27 18:38:39;;;;;;;188.93;93.75;;;;;;;24.73;37.48;100091.69;5039778;28;20852;-89
2022/08/27 18:41:13;;;;;;;195.38;95.50;;;;;;;24.34;39.46;100036.31;5041883;28;20032;-91
2022/08/27 18:43:51;;;;;;;200.38;91.53;;;;;;;24.08;38.07;100001.00;5046705;28;20053;-92
2022/08/27 18:46:53;;;;;;;225.80;95.53;;;;;;;24.66;39.02;100090.84;5208780;22;20189;-92
2022/08/27 18:50:02;;;;;;;205.93;94.57;;;;;;;24.64;38.81;100084.84;5135616;22;20115;-93
2022/08/27 18:52:49;;;;;;;209.13;95.82;;;;;;;24.46;38.78;100065.94;4990301;28;20057;-91
2022/08/27 18:55:20;;;;;;;211.82;97.28;;;;;;;24.22;39.00;100033.03;5003881;23;20046;-92
2022/08/27 19:00:28;;;;;;;204.10;96.97;;;;;;;24.03;39.20;100008.91;5013911;23;20058;-92
2022/08/27 19:09:36;;;;;;;215.25;99.75;;;;;;;24.21;38.94;100048.19;5109668;22;20053;-94
2022/08/27 19:51:29;;;;;;;249.60;107.70;;;;;;;23.63;41.19;100047.63;5121755;22;20034;-92
2022/08/27 20:01:19;;;;;;;245.98;110.82;;;;;;;23.30;42.43;100019.78;5003585;26;20081;-92
2022/08/27 20:04:38;;;;;;;233.25;110.63;;;;;;;23.60;42.59;100078.31;4964741;22;20062;-91
2022/08/27 20:07:32;;;;;;;238.40;111.05;;;;;;;23.54;42.40;100065.88;4976846;28;20072;-89
2022/08/27 20:11:03;;;;;;;225.60;108.90;;;;;;;23.48;42.36;100072.97;4996448;28;20030;-90
2022/08/27 20:13:38;;;;;;;243.98;115.93;;;;;;;23.16;42.17;100040.75;5036668;23;20041;-93
2022/08/27 20:16:14;;;;;;;260.60;127.82;;;;;;;22.79;43.08;99987.69;4959088;28;20045;-91
2022/08/27 20:18:41;;;;;;;260.63;115.15;;;;;;;22.88;43.89;100010.53;5013173;23;20057;-92
2022/08/27 20:21:14;;;;;;;261.13;115.07;;;;;;;22.63;46.44;99990.66;4992672;28;20041;-96
2022/08/27 20:26:50;;;;;;;230.95;101.72;;;;;;;22.98;49.65;100078.78;4984842;23;20054;-92
2022/08/27 20:34:03;;;;;;;247.45;105.15;;;;;;;22.68;49.87;100070.34;4965444;28;20047;-92
2022/08/27 20:36:30;;;;;;;;;;;;;;;22.65;49.35;100074.72;4948768;29;20044;-93
2022/08/27 20:39:11;;;;;;;225.88;104.25;;;;;;;22.34;48.38;100039.59;4988759;23;19926;-92
2022/08/27 20:42:01;;;;;;;244.25;114.40;;;;;;;22.20;46.72;100017.91;4985029;28;20057;-92
2022/08/27 20:48:59;;;;;;;260.92;125.22;;;;;;;21.86;48.52;99983.56;4989413;28;20074;-93
2022/08/27 20:52:29;;;;;;;236.45;114.75;;;;;;;22.41;49.56;100075.94;4954635;28;20038;-92
2022/08/27 20:55:59;;;;;;;229.38;111.93;;;;;;;22.38;45.67;100078.66;4933162;28;20035;-91
2022/08/27 21:01:55;;;;;;;252.05;108.65;;;;;;;21.60;53.09;100023.25;4980484;23;20049;-91
2022/08/27 21:04:38;;;;;;;242.75;115.82;;;;;;;21.98;50.78;100079.97;5074557;22;20057;31
2022/08/27 21:07:05;;;;;;;255.07;109.38;;;;;;;21.79;50.09;100042.69;4943458;28;20042;-90
2022/08/27 21:09:39;;;;;;;225.90;108.72;;;;;;;21.69;46.88;100009.09;4953846;28;20505;-90
2022/08/27 21:13:00;;;;;;;240.75;109.85;;;;;;;22.22;47.26;100081.63;4974568;23;20043;-91
2022/08/27 21:19:04;;;;;;;190.13;91.47;;;;;;;21.76;46.71;99984.97;4989115;28;20062;-92
2022/08/27 21:22:01;;;;;;;190.38;91.15;;;;;;;21.78;45.24;99971.47;4948541;28;20030;-91
2022/08/27 21:24:27;;;;;;;220.65;96.47;;;;;;;22.20;49.35;100036.63;5161416;22;20064;-91
2022/08/27 21:27:00;;;;;;;198.60;94.88;;;;;;;21.95;46.61;99994.41;5105081;23;20050;-90
2022/08/27 21:33:11;;;;;;;193.50;91.37;;;;;;;22.50;44.75;100075.69;5145187;22;20026;-92
2022/08/27 21:53:56;;;;;;;204.35;95.38;;;;;;;22.54;45.10;100057.03;4951090;28;20042;-96
2022/08/27 21:56:28;;;;;;;194.65;91.82;;;;;;;21.89;45.69;99949.41;5087088;22;20063;-92
2022/08/27 22:02:51;;;;;;;185.75;90.65;;;;;;;22.48;44.76;100044.59;5056233;22;20054;-96
2022/08/27 22:06:22;;;;;;;187.30;92.55;;;;;;;22.47;45.76;100043.00;4976084;28;20042;-92
2022/08/27 22:15:23;;;;;;;180.25;88.32;;;;;;;21.80;45.12;99932.16;5272526;22;20062;-91
2022/08/27 22:17:52;;;;;;;161.20;82.55;;;;;;;22.23;42.91;99991.31;4989924;23;20035;-92
2022/08/27 22:22:58;;;;;;;189.55;85.72;;;;;;;22.43;43.16;100020.66;4998492;23;20041;-91
2022/08/27 22:25:46;;;;;;;184.73;84.43;;;;;;;22.53;43.32;100024.78;5125289;23;20020;-93
2022/08/27 22:30:59;;;;;;;178.25;85.15;;;;;;;22.56;43.24;100031.59;5031228;22;20034;-93
2022/08/27 22:34:02;;;;;;;177.82;85.28;;;;;;;22.61;43.37;100023.69;4956043;28;20050;-92
2022/08/27 22:43:38;;;;;;;152.63;79.85;;;;;;;22.61;42.37;100023.69;4951537;29;20040;-92
2022/08/27 22:49:34;;;;;;;163.57;79.60;;;;;;;22.25;42.09;99964.69;4978161;23;20030;-91
2022/08/27 22:55:19;;;;;;;161.23;78.22;;;;;;;22.30;41.95;99960.78;5055324;23;20120;-90
2022/08/27 22:57:53;;;;;;;157.50;80.78;;;;;;;22.34;42.03;99971.97;4990412;23;20070;-93
2022/08/27 23:05:16;;;;;;;148.48;74.03;;;;;;;22.69;42.34;100022.59;5013487;22;20070;-96
2022/08/27 23:08:10;;;;;;;148.30;72.18;;;;;;;22.68;41.78;100021.00;4958494;23;20066;-93
2022/08/27 23:19:06;;;;;;;149.25;71.40;;;;;;;22.68;41.61;100021.00;4988736;28;20126;-89
2022/08/27 23:22:36;;;;;;;149.02;74.70;;;;;;;22.65;41.51;100015.38;4982002;23;20030;-92
2022/08/27 23:29:36;;;;;;;133.40;71.20;;;;;;;22.70;41.05;100015.03;5001020;28;20496;-92
2022/08/27 23:35:05;;;;;;;123.22;64.70;;;;;;;21.99;40.85;99900.63;4965217;29;20132;-92
2022/08/27 23:38:18;;;;;;;128.32;68.40;;;;;;;22.65;40.59;100010.63;4918539;29;20546;-91
2022/08/27 23:49:33;;;;;;;154.13;74.40;;;;;;;22.64;41.05;100002.63;4923672;22;20058;-93
2022/08/27 23:52:21;;;;;;;148.73;78.53;;;;;;;22.61;41.30;100004.16;4979405;28;20099;-93
2022/08/27 23:54:47;;;;;;;161.63;82.88;;;;;;;22.18;41.08;99931.16;4977631;23;20055;-96
2022/08/27 23:58:20;;;;;;;179.25;91.38;;;;;;;22.58;40.79;99999.34;4973232;28;20058;-96
